Main page
METAR-TAF:

METAR-TAF

Airports :

Princess Juliana International Airport

Sint Maarten, Netherlands Antilles

latitude: 18-03N, longitude: 063-07W, elevation: 4 m

Current weather observation

The report was made 33 minutes ago, at 19:00 UTC
Wind 12 kt from the East, varying between East/Northeast and Southeast
Temperature 32°C
Humidity 63%
Pressure 1014 hPa
Visibility 10 km or more
Few clouds at a height of 2100 ft

METAR: TNCM 191900Z 10012KT 070V130 9999 FEW021 32/24 Q1014 NOSIG RMK A2994, HZ ALQDS

Time: 15:33 (19:33 UTC)

Forecast

The report was made 1 hour and 47 minutes ago, at 17:46 UTC
Forecast valid from 19 at 18 UTC to 20 at 18 UTC
Wind 16 kt from the East/Southeast
Visibility: 10 km
Scattered clouds at a height of 1800 ft
showers in vicinity
From 20 at 0600 UTC
Wind 12 kt from the East
Visibility: 9.7 km
Few clouds at a height of 1800 ft
haze

TAF: TNCM 191746Z 1918/2018 11016KT P6SM VCSH SCT018 FM200600 10012KT 6SM HZ FEW018

Weather observations and forecasts of more than 4000 airports (METAR and TAF reports).

The available stations are represented by yellow and red dots on the map.

Hover mouse over dot to see the name of the station.

Then click to see weather observations and forecasts.

To change the map : click on the green buttons with a black cross to zoom in, on the green button with a dash to zoom out, or on the green arrows for adjacent maps.


METAR-TAF: